Time;durP1;ratioP1;P1;durP2;ratioP2;P2;SDS_P1;SDS_P2;PMS_P1;PMS_P2;Temp;Humidity;BMP_temperature;BMP_pressure;BME280_temperature;BME280_humidity;BME280_pressure;Samples;Min_cycle;Max_cycle;Signal;HPM_P1;HPM_P2
2022/06/26 00:02:10;;;;;;;3.17;1.75;;;18.60;99.90;;;;;;4981280;28;20179;-41
2022/06/26 00:04:36;;;;;;;2.85;2.20;;;18.60;99.90;;;;;;4975224;28;20211;-36
2022/06/26 00:07:03;;;;;;;2.10;1.90;;;18.50;99.90;;;;;;4974269;28;20275;-35
2022/06/26 00:09:29;;;;;;;2.28;2.08;;;18.50;99.90;;;;;;4962078;28;20286;-39
2022/06/26 00:11:55;;;;;;;2.17;1.90;;;18.60;99.90;;;;;;4977545;28;20206;-40
2022/06/26 00:14:21;;;;;;;2.92;1.90;;;18.60;99.90;;;;;;4991715;28;20179;-37
2022/06/26 00:16:47;;;;;;;4.57;2.20;;;18.60;99.90;;;;;;5011230;28;20210;-38
2022/06/26 00:19:13;;;;;;;2.58;2.17;;;18.70;99.90;;;;;;4976474;28;20215;-41
2022/06/26 00:21:38;;;;;;;2.20;2.00;;;18.70;99.90;;;;;;4974392;28;20235;-39
2022/06/26 00:24:05;;;;;;;3.58;1.92;;;18.80;99.90;;;;;;4991286;28;20226;-40
2022/06/26 00:26:31;;;;;;;5.00;1.77;;;18.90;99.90;;;;;;4992617;28;20194;-38
2022/06/26 00:28:56;;;;;;;1.92;1.73;;;19.00;99.90;;;;;;5005390;28;20199;-39
2022/06/26 00:31:22;;;;;;;2.05;1.80;;;19.10;99.90;;;;;;4974110;28;20287;-38
2022/06/26 00:33:48;;;;;;;1.60;1.50;;;19.20;99.90;;;;;;4988657;28;20182;-40
2022/06/26 00:36:14;;;;;;;1.67;1.58;;;19.30;99.90;;;;;;4984439;28;20185;-39
2022/06/26 00:38:40;;;;;;;1.88;1.67;;;19.40;99.90;;;;;;4993312;28;20210;-38
2022/06/26 00:41:06;;;;;;;1.65;1.52;;;19.40;99.90;;;;;;4975417;28;20182;-40
2022/06/26 00:43:32;;;;;;;1.85;1.75;;;19.50;99.90;;;;;;4979042;28;20200;-40
2022/06/26 00:45:58;;;;;;;3.25;1.80;;;19.50;99.90;;;;;;4989817;28;20184;-40
2022/06/26 00:48:24;;;;;;;3.13;1.90;;;19.60;99.90;;;;;;4974139;28;20208;-39
2022/06/26 00:50:55;;;;;;;2.30;1.55;;;19.60;99.90;;;;;;4991445;28;20263;-40
2022/06/26 00:53:21;;;;;;;1.80;1.70;;;19.60;99.90;;;;;;4994218;28;20190;-39
2022/06/26 00:55:47;;;;;;;2.65;1.70;;;19.60;99.90;;;;;;4976636;28;20184;-39
2022/06/26 00:58:14;;;;;;;1.88;1.77;;;19.60;99.90;;;;;;4958014;28;20214;-41
2022/06/26 01:00:41;;;;;;;2.15;1.95;;;19.60;99.90;;;;;;4980512;28;20262;-41
2022/06/26 01:03:08;;;;;;;2.03;1.92;;;19.60;99.90;;;;;;4993373;28;20199;-41
2022/06/26 01:05:34;;;;;;;1.88;1.67;;;19.70;99.90;;;;;;4988981;28;20175;-42
2022/06/26 01:08:00;;;;;;;1.90;1.70;;;19.80;99.90;;;;;;4993439;28;20207;-41
2022/06/26 01:10:27;;;;;;;2.05;1.95;;;19.80;99.90;;;;;;4973106;28;20266;-41
2022/06/26 01:12:54;;;;;;;3.67;1.73;;;19.80;99.90;;;;;;4973619;28;20180;-39
2022/06/26 01:15:20;;;;;;;1.88;1.75;;;19.70;99.90;;;;;;4975584;28;20188;-42
2022/06/26 01:17:47;;;;;;;1.98;1.80;;;19.70;99.90;;;;;;4993217;28;20254;-41
2022/06/26 01:20:14;;;;;;;2.83;2.00;;;19.70;99.90;;;;;;4978751;28;20180;-41
2022/06/26 01:22:40;;;;;;;2.05;1.70;;;19.60;99.90;;;;;;4977396;28;20265;-41
2022/06/26 01:25:07;;;;;;;4.13;1.90;;;19.50;99.90;;;;;;4991986;28;20562;-41
2022/06/26 01:27:41;;;;;;;2.60;2.05;;;19.50;99.90;;;;;;4996495;28;20183;-41
2022/06/26 01:30:09;;;;;;;4.47;2.00;;;19.50;99.90;;;;;;4965532;28;20171;-41
2022/06/26 01:32:34;;;;;;;2.20;2.00;;;19.40;99.90;;;;;;4977082;28;20215;-41
2022/06/26 01:35:00;;;;;;;1.85;1.75;;;19.40;99.90;;;;;;4985066;28;20227;-41
2022/06/26 01:37:27;;;;;;;1.98;1.88;;;19.50;99.90;;;;;;4977101;28;20190;-41
2022/06/26 01:39:53;;;;;;;4.22;2.10;;;19.60;99.90;;;;;;4991417;28;20210;-41
2022/06/26 01:42:19;;;;;;;3.83;2.00;;;19.60;99.90;;;;;;4996178;28;20186;-41
2022/06/26 01:44:45;;;;;;;1.92;1.80;;;19.60;99.90;;;;;;4965999;28;20176;-41
2022/06/26 01:47:12;;;;;;;2.42;1.88;;;19.50;99.90;;;;;;4977987;28;20255;-41
2022/06/26 01:49:38;;;;;;;2.08;1.80;;;19.60;99.90;;;;;;4988581;28;20298;-41
2022/06/26 01:52:04;;;;;;;2.30;1.88;;;19.60;99.90;;;;;;4996009;28;20247;-41
2022/06/26 01:54:30;;;;;;;2.20;2.10;;;19.60;99.90;;;;;;4995261;28;20191;-42
2022/06/26 01:56:57;;;;;;;2.28;1.60;;;19.60;99.90;;;;;;4979876;28;20179;-41
2022/06/26 01:59:23;;;;;;;1.73;1.60;;;19.60;99.90;;;;;;4970624;28;20302;-40
2022/06/26 02:01:48;;;;;;;2.30;2.10;;;19.60;99.90;;;;;;4976639;28;20255;-41
2022/06/26 02:04:16;;;;;;;1.75;1.65;;;19.60;99.90;;;;;;4977282;28;20191;-41
2022/06/26 02:06:43;;;;;;;2.45;2.00;;;19.60;99.90;;;;;;4976657;28;20301;-41
2022/06/26 02:15:06;;;;;;;3.45;2.30;;;19.50;99.90;;;;;;4992028;28;20180;-41
2022/06/26 02:17:32;;;;;;;3.38;2.50;;;19.50;99.90;;;;;;4993629;28;20222;-41
2022/06/26 02:19:58;;;;;;;2.05;1.95;;;19.60;99.90;;;;;;4973648;28;20203;-41
2022/06/26 02:22:24;;;;;;;2.50;1.80;;;19.50;99.90;;;;;;4995615;28;20210;-41
2022/06/26 02:24:50;;;;;;;2.08;1.98;;;19.50;99.90;;;;;;4966937;28;20230;-41
2022/06/26 02:27:16;;;;;;;2.00;1.88;;;19.50;99.90;;;;;;4976074;28;20180;-42
2022/06/26 02:29:42;;;;;;;2.05;1.85;;;19.50;99.90;;;;;;4975561;28;20238;-41
2022/06/26 02:32:09;;;;;;;2.28;2.00;;;19.50;99.90;;;;;;4997578;28;20201;-41
2022/06/26 02:34:36;;;;;;;2.42;1.80;;;19.50;99.90;;;;;;4977858;28;20179;-42
2022/06/26 02:37:02;;;;;;;3.03;1.77;;;19.50;99.90;;;;;;4994592;28;20176;-41
2022/06/26 02:39:28;;;;;;;2.58;1.90;;;19.50;99.90;;;;;;4978730;28;20203;-40
2022/06/26 02:41:54;;;;;;;1.80;1.70;;;19.50;99.90;;;;;;4978042;28;20172;-42
2022/06/26 02:44:21;;;;;;;2.13;2.00;;;19.40;99.90;;;;;;4975394;28;20179;-41
2022/06/26 02:46:47;;;;;;;2.30;2.10;;;19.40;99.90;;;;;;4975761;28;20184;-41
2022/06/26 02:49:13;;;;;;;2.17;1.92;;;19.40;99.90;;;;;;4994611;28;20203;-41
2022/06/26 02:51:39;;;;;;;1.73;1.63;;;19.40;99.90;;;;;;4995168;28;20707;-41
2022/06/26 02:54:05;;;;;;;1.90;1.70;;;19.40;99.90;;;;;;4976819;28;20175;-41
2022/06/26 02:56:31;;;;;;;1.67;1.50;;;19.30;99.90;;;;;;4978871;28;20206;-40
2022/06/26 02:58:57;;;;;;;1.80;1.70;;;19.40;99.90;;;;;;4992945;28;20234;-41
2022/06/26 03:01:23;;;;;;;2.17;1.70;;;19.30;99.90;;;;;;4978768;28;20207;-41
2022/06/26 03:03:54;;;;;;;1.98;1.77;;;19.20;99.90;;;;;;4963588;28;20223;-41
2022/06/26 03:06:20;;;;;;;2.25;2.03;;;19.20;99.90;;;;;;4975323;28;20187;-41
2022/06/26 03:08:46;;;;;;;2.20;2.00;;;19.20;99.90;;;;;;4988518;28;20203;-42
2022/06/26 03:11:12;;;;;;;1.90;1.80;;;19.20;99.90;;;;;;4978766;28;20222;-41
2022/06/26 03:13:38;;;;;;;2.47;1.58;;;19.20;99.90;;;;;;4981906;28;20237;-41
2022/06/26 03:16:04;;;;;;;2.95;1.90;;;19.10;99.90;;;;;;4975103;28;20180;-41
2022/06/26 03:18:30;;;;;;;3.35;2.00;;;19.10;99.90;;;;;;4984703;28;20699;-41
2022/06/26 03:20:57;;;;;;;1.98;1.70;;;19.00;99.90;;;;;;5012603;28;20171;-41
2022/06/26 03:24:00;;;;;;;2.53;1.92;;;18.90;99.90;;;;;;4969024;28;20183;-41
2022/06/26 03:26:10;;;;;;;2.40;1.75;;;18.90;99.90;;;;;;4981858;28;20179;-41
2022/06/26 03:28:35;;;;;;;2.90;2.00;;;18.80;99.90;;;;;;4978089;28;20211;-41
2022/06/26 03:31:03;;;;;;;3.50;2.00;;;18.70;99.90;;;;;;4988536;28;20187;-41
2022/06/26 03:33:30;;;;;;;2.03;1.83;;;18.80;99.90;;;;;;4974776;28;20176;-41
2022/06/26 03:35:56;;;;;;;3.45;1.90;;;18.80;99.90;;;;;;4979015;28;20186;-41
2022/06/26 03:38:22;;;;;;;1.90;1.80;;;18.80;99.90;;;;;;4993627;28;20206;-39
2022/06/26 03:40:48;;;;;;;2.33;2.15;;;18.80;99.90;;;;;;4993686;28;20183;-41
2022/06/26 03:43:19;;;;;;;2.33;2.13;;;18.70;99.90;;;;;;4993666;28;20171;-41
2022/06/26 03:45:47;;;;;;;3.47;2.20;;;18.70;99.90;;;;;;4978158;28;20199;-39
2022/06/26 03:48:13;;;;;;;2.63;1.90;;;18.70;99.90;;;;;;4984839;28;20214;-41
2022/06/26 03:50:39;;;;;;;2.33;2.10;;;18.60;99.90;;;;;;4993887;28;20266;-40
2022/06/26 03:53:05;;;;;;;3.20;2.35;;;18.60;99.90;;;;;;4968637;28;20180;-41
2022/06/26 03:55:31;;;;;;;3.63;2.03;;;18.60;99.90;;;;;;4974158;28;20254;-41
2022/06/26 03:57:57;;;;;;;2.88;2.40;;;18.70;99.90;;;;;;4981266;28;20630;-40
2022/06/26 04:00:23;;;;;;;2.63;2.30;;;18.70;99.90;;;;;;4977184;28;20241;-41
2022/06/26 04:02:49;;;;;;;2.13;1.92;;;18.70;99.90;;;;;;4989463;28;20187;-41
2022/06/26 04:05:23;;;;;;;4.05;2.10;;;18.60;99.90;;;;;;4970891;28;20196;-41
2022/06/26 04:07:49;;;;;;;3.42;2.17;;;18.50;99.90;;;;;;4990003;28;20246;-41
2022/06/26 04:10:30;;;;;;;3.85;2.45;;;18.50;99.90;;;;;;4976183;28;20180;-40
2022/06/26 04:13:09;;;;;;;2.30;2.10;;;18.50;99.90;;;;;;4975104;28;20184;-41
2022/06/26 04:15:40;;;;;;;3.25;2.30;;;18.50;99.90;;;;;;4973830;28;20179;-39
2022/06/26 04:18:06;;;;;;;2.42;2.13;;;18.50;99.90;;;;;;4982011;28;20211;-41
2022/06/26 04:20:33;;;;;;;2.00;1.90;;;18.60;99.90;;;;;;4993346;28;20187;-39
2022/06/26 04:23:06;;;;;;;1.90;1.80;;;18.60;99.90;;;;;;4975913;28;20186;-41
2022/06/26 04:25:35;;;;;;;3.08;2.30;;;18.50;99.90;;;;;;4977109;28;20185;-41
2022/06/26 04:28:03;;;;;;;2.33;2.10;;;18.60;99.90;;;;;;4986693;28;20227;-42
2022/06/26 04:30:33;;;;;;;2.95;2.35;;;18.60;99.90;;;;;;4974164;28;20739;-41
2022/06/26 04:32:59;;;;;;;4.72;2.40;;;18.60;99.90;;;;;;4974624;28;20175;-41
2022/06/26 04:35:26;;;;;;;2.35;2.15;;;18.60;99.90;;;;;;4973712;28;20180;-41
2022/06/26 04:37:52;;;;;;;3.65;2.20;;;18.50;99.90;;;;;;4975583;28;20267;-41
2022/06/26 04:40:20;;;;;;;3.55;2.13;;;18.50;99.90;;;;;;4993012;28;20198;-41
2022/06/26 04:42:46;;;;;;;2.85;2.55;;;18.40;99.90;;;;;;4979308;28;20211;-41
2022/06/26 04:45:13;;;;;;;4.32;2.20;;;18.40;99.90;;;;;;4973650;28;20376;-38
2022/06/26 04:47:41;;;;;;;4.20;2.53;;;18.40;99.90;;;;;;4974064;28;20180;-40
2022/06/26 04:50:15;;;;;;;4.05;2.25;;;18.40;99.90;;;;;;4978467;28;20571;-41
2022/06/26 04:52:46;;;;;;;2.75;2.00;;;18.50;99.90;;;;;;4973528;28;20184;-41
2022/06/26 04:55:13;;;;;;;2.97;2.45;;;18.50;99.90;;;;;;4991017;28;20207;-40
2022/06/26 04:57:42;;;;;;;2.83;2.63;;;18.50;99.90;;;;;;4981092;28;20225;-41
2022/06/26 05:00:11;;;;;;;3.00;2.80;;;18.50;99.90;;;;;;4966502;28;20212;-41
2022/06/26 05:02:42;;;;;;;3.45;2.65;;;18.40;99.90;;;;;;4977466;28;20184;-38
2022/06/26 05:05:21;;;;;;;2.70;2.50;;;18.40;99.90;;;;;;4977958;28;20644;-41
2022/06/26 05:08:05;;;;;;;4.20;2.15;;;18.40;99.90;;;;;;4979603;28;20196;-41
2022/06/26 05:10:33;;;;;;;2.58;2.35;;;18.30;99.90;;;;;;4980071;28;20180;-40
2022/06/26 05:12:59;;;;;;;3.20;2.50;;;18.30;99.90;;;;;;4978656;28;20179;-41
2022/06/26 05:15:46;;;;;;;3.17;2.38;;;18.30;99.90;;;;;;4979871;28;20199;-39
2022/06/26 05:18:14;;;;;;;4.20;2.30;;;18.30;99.90;;;;;;4981470;28;20199;-40
2022/06/26 05:20:39;;;;;;;2.63;2.42;;;18.30;99.90;;;;;;5014262;28;20198;-41
2022/06/26 05:23:07;;;;;;;2.90;2.53;;;18.30;99.90;;;;;;4994875;28;20183;-40
2022/06/26 05:25:39;;;;;;;3.05;1.95;;;18.40;99.90;;;;;;4980048;28;20199;-40
2022/06/26 05:28:05;;;;;;;2.55;2.38;;;18.50;99.90;;;;;;4994465;28;20283;-39
2022/06/26 05:30:31;;;;;;;2.72;2.33;;;18.60;99.90;;;;;;4976887;28;20183;-41
2022/06/26 05:33:02;;;;;;;2.83;2.55;;;18.70;99.90;;;;;;4995194;28;20179;-41
2022/06/26 05:35:30;;;;;;;3.78;2.58;;;18.70;99.90;;;;;;4987685;28;20189;-41
2022/06/26 05:37:56;;;;;;;2.58;2.38;;;18.80;99.90;;;;;;4976407;28;20192;-41
2022/06/26 05:40:24;;;;;;;3.35;2.60;;;18.90;99.90;;;;;;4977047;28;20176;-41
2022/06/26 05:42:56;;;;;;;3.03;2.33;;;18.90;99.90;;;;;;4977624;28;20180;-41
2022/06/26 05:45:24;;;;;;;2.55;2.35;;;19.00;99.90;;;;;;4976478;28;20291;-41
2022/06/26 05:48:26;;;;;;;3.10;2.50;;;19.10;99.90;;;;;;5000960;28;20218;-41
2022/06/26 05:51:21;;;;;;;2.95;2.17;;;19.30;99.90;;;;;;4990637;28;20199;-41
2022/06/26 05:54:00;;;;;;;2.78;2.20;;;19.50;99.90;;;;;;4992736;28;20184;-41
2022/06/26 05:56:49;;;;;;;2.65;2.20;;;19.70;99.90;;;;;;4976720;28;20190;-41
2022/06/26 05:59:39;;;;;;;2.60;1.98;;;19.90;99.90;;;;;;4995804;28;20695;-41
2022/06/26 06:02:24;;;;;;;2.90;2.20;;;20.10;99.90;;;;;;4994367;28;20179;-41
2022/06/26 06:04:50;;;;;;;4.03;1.95;;;20.30;99.90;;;;;;4976016;28;20181;-41
2022/06/26 06:07:17;;;;;;;2.00;1.90;;;20.40;99.90;;;;;;4991927;28;20183;-40
2022/06/26 06:09:43;;;;;;;2.03;1.92;;;20.50;99.90;;;;;;4992285;28;20214;-38
2022/06/26 06:12:11;;;;;;;1.85;1.75;;;20.70;99.90;;;;;;4992062;28;20180;-41
2022/06/26 06:14:37;;;;;;;2.53;2.30;;;20.90;99.90;;;;;;4992375;28;20184;-41
2022/06/26 06:19:49;;;;;;;2.22;2.03;;;21.10;99.90;;;;;;4992100;28;20212;-40
2022/06/26 06:22:18;;;;;;;2.35;2.08;;;21.30;99.90;;;;;;4978008;28;20196;-41
2022/06/26 06:24:44;;;;;;;2.00;1.77;;;21.40;99.90;;;;;;4976157;28;20190;-41
2022/06/26 06:27:10;;;;;;;2.67;1.95;;;21.60;99.90;;;;;;4992157;28;20183;-41
2022/06/26 06:29:36;;;;;;;2.50;2.08;;;21.60;99.90;;;;;;4975960;28;20200;-41
2022/06/26 06:32:02;;;;;;;2.10;1.70;;;21.70;99.90;;;;;;4976981;28;20553;-42
2022/06/26 06:34:28;;;;;;;1.90;1.80;;;21.90;99.90;;;;;;4975598;28;20183;-41
2022/06/26 06:36:54;;;;;;;1.85;1.75;;;21.90;99.90;;;;;;4972445;28;20234;-41
2022/06/26 06:39:21;;;;;;;1.92;1.80;;;22.00;99.90;;;;;;4995247;28;20223;-41
2022/06/26 06:41:50;;;;;;;1.75;1.65;;;22.10;99.90;;;;;;4977488;28;20186;-41
2022/06/26 06:44:16;;;;;;;3.33;2.00;;;22.20;99.90;;;;;;4992655;28;20183;-41
2022/06/26 06:47:08;;;;;;;2.20;2.00;;;22.40;99.90;;;;;;4996881;28;20190;-39
2022/06/26 06:49:49;;;;;;;1.90;1.80;;;22.40;99.90;;;;;;4972914;28;20223;-41
2022/06/26 06:52:15;;;;;;;2.03;1.83;;;22.50;99.90;;;;;;4976582;28;20270;-41
2022/06/26 06:54:41;;;;;;;2.75;1.85;;;22.60;99.90;;;;;;4976491;28;20188;-41
2022/06/26 06:57:07;;;;;;;2.63;1.98;;;22.60;99.90;;;;;;4975853;28;20227;-42
2022/06/26 06:59:33;;;;;;;2.65;1.90;;;22.80;99.90;;;;;;4990735;28;20215;-41
2022/06/26 07:01:58;;;;;;;2.08;1.70;;;23.00;99.90;;;;;;4990319;28;20183;-41
2022/06/26 07:04:24;;;;;;;1.90;1.70;;;23.20;99.90;;;;;;4984988;28;20202;-41
2022/06/26 07:06:51;;;;;;;2.17;1.98;;;23.30;99.90;;;;;;4973488;28;20557;-42
2022/06/26 07:09:17;;;;;;;1.70;1.60;;;23.40;99.90;;;;;;4968365;28;20200;-41
2022/06/26 07:11:46;;;;;;;1.80;1.70;;;23.40;99.90;;;;;;4960307;28;20280;-41
2022/06/26 07:14:12;;;;;;;1.92;1.20;;;23.50;99.90;;;;;;4955520;28;20209;-42
2022/06/26 07:16:40;;;;;;;1.60;1.38;;;23.60;99.90;;;;;;4954881;28;20188;-42
2022/06/26 07:19:06;;;;;;;2.45;1.55;;;23.40;99.90;;;;;;4962336;28;20212;-41
2022/06/26 07:21:33;;;;;;;2.15;1.30;;;23.60;99.90;;;;;;4974326;28;20180;-42
2022/06/26 07:24:05;;;;;;;1.50;1.40;;;23.60;99.90;;;;;;4975115;28;20326;-42
2022/06/26 07:26:52;;;;;;;1.58;1.20;;;23.60;99.90;;;;;;5006788;28;20202;-42
2022/06/26 07:29:18;;;;;;;1.60;1.40;;;23.80;99.90;;;;;;4975813;28;20210;-40
2022/06/26 07:31:44;;;;;;;1.92;1.30;;;23.80;99.90;;;;;;4976193;28;20180;-41
2022/06/26 07:34:19;;;;;;;1.42;1.33;;;23.70;99.90;;;;;;4967745;28;20226;-41
2022/06/26 07:36:49;;;;;;;2.08;1.20;;;23.80;99.90;;;;;;4974553;28;20183;-40
2022/06/26 07:39:19;;;;;;;1.50;1.40;;;24.00;99.90;;;;;;4971811;28;20207;-41
2022/06/26 07:41:47;;;;;;;1.30;1.20;;;23.90;99.90;;;;;;4974383;28;20180;-42
2022/06/26 07:44:13;;;;;;;1.23;1.15;;;23.90;99.90;;;;;;4974484;28;20271;-41
2022/06/26 07:46:40;;;;;;;1.90;1.30;;;23.80;99.90;;;;;;4974462;28;20172;-41
2022/06/26 07:49:08;;;;;;;1.50;1.30;;;24.10;99.90;;;;;;4974383;28;20203;-41
2022/06/26 07:51:35;;;;;;;2.33;1.25;;;24.20;99.90;;;;;;4978425;28;20187;-41
2022/06/26 07:54:01;;;;;;;1.55;1.45;;;24.40;99.90;;;;;;4991474;28;20204;-42
2022/06/26 07:56:27;;;;;;;2.35;1.55;;;24.60;99.90;;;;;;4974464;28;20226;-42
2022/06/26 07:58:56;;;;;;;1.73;1.48;;;24.70;99.90;;;;;;4990270;28;20270;-42
2022/06/26 08:01:22;;;;;;;1.48;1.38;;;24.90;99.90;;;;;;4990667;28;20255;-42
2022/06/26 08:03:48;;;;;;;1.85;1.40;;;24.90;99.90;;;;;;4991182;28;20184;-41
2022/06/26 08:06:14;;;;;;;1.50;1.40;;;24.90;99.90;;;;;;4974828;28;20211;-42
2022/06/26 08:08:40;;;;;;;2.72;1.48;;;25.00;99.90;;;;;;4974023;28;20200;-41
2022/06/26 08:11:06;;;;;;;3.00;1.60;;;25.20;99.90;;;;;;4974396;28;20212;-42
2022/06/26 08:13:32;;;;;;;1.38;1.27;;;25.20;99.90;;;;;;4974321;28;20184;-42
2022/06/26 08:15:58;;;;;;;1.60;1.50;;;25.30;99.90;;;;;;4979736;28;20222;-42
2022/06/26 08:18:24;;;;;;;1.40;1.30;;;25.40;99.90;;;;;;4993411;28;20211;-42
2022/06/26 08:20:50;;;;;;;1.92;1.33;;;25.60;99.90;;;;;;4971901;28;20179;-42
2022/06/26 08:23:17;;;;;;;1.58;1.48;;;25.80;99.90;;;;;;4974033;28;20188;-42
2022/06/26 08:25:43;;;;;;;2.22;1.30;;;25.80;99.90;;;;;;4974804;28;20183;-42
2022/06/26 08:28:09;;;;;;;3.03;1.58;;;25.70;99.90;;;;;;4973944;28;20211;-41
2022/06/26 08:30:34;;;;;;;1.50;1.40;;;25.90;99.90;;;;;;4981512;28;20183;-42
2022/06/26 08:33:00;;;;;;;1.92;1.35;;;26.10;99.90;;;;;;4974133;28;20233;-42
2022/06/26 08:35:27;;;;;;;1.75;1.40;;;26.20;99.90;;;;;;4964016;28;20182;-42
2022/06/26 08:37:54;;;;;;;1.52;1.42;;;26.10;99.90;;;;;;4970634;28;20251;-42
2022/06/26 08:40:21;;;;;;;1.20;1.10;;;26.20;99.90;;;;;;4978920;28;20187;-42
2022/06/26 08:42:49;;;;;;;1.20;1.10;;;26.40;99.90;;;;;;4963401;28;20183;-41
2022/06/26 08:45:20;;;;;;;1.42;1.33;;;26.70;99.90;;;;;;4989928;28;20180;-42
2022/06/26 08:47:50;;;;;;;1.77;1.20;;;26.90;99.90;;;;;;4989946;28;20199;-42
2022/06/26 08:50:22;;;;;;;1.48;1.38;;;27.00;99.90;;;;;;4988707;28;20191;-42
2022/06/26 08:52:52;;;;;;;1.15;1.13;;;27.10;99.90;;;;;;4986234;28;20191;-42
2022/06/26 08:55:22;;;;;;;1.40;1.30;;;27.30;99.90;;;;;;4992174;28;20176;-41
2022/06/26 08:57:48;;;;;;;2.35;1.38;;;27.10;99.90;;;;;;4968818;28;20196;-42
2022/06/26 09:00:17;;;;;;;1.75;1.17;;;27.10;99.90;;;;;;4991301;28;20212;-42
2022/06/26 09:02:44;;;;;;;1.40;1.30;;;27.00;99.90;;;;;;4981879;28;20250;-42
2022/06/26 09:05:10;;;;;;;1.35;1.17;;;27.00;99.90;;;;;;4990898;28;20191;-40
2022/06/26 09:07:51;;;;;;;1.33;1.25;;;27.00;99.90;;;;;;4985665;28;20186;-42
2022/06/26 09:10:21;;;;;;;1.40;1.30;;;27.00;99.90;;;;;;4993363;28;20202;-42
2022/06/26 09:12:53;;;;;;;2.10;1.70;;;27.10;99.90;;;;;;5009377;28;20233;-42
2022/06/26 09:15:22;;;;;;;4.30;1.33;;;27.10;99.90;;;;;;4992678;28;20266;-42
2022/06/26 09:18:03;;;;;;;1.52;1.42;;;27.00;99.90;;;;;;5009534;28;20290;-42
2022/06/26 09:20:35;;;;;;;1.40;1.30;;;27.00;99.90;;;;;;4982756;28;20645;-41
2022/06/26 09:23:02;;;;;;;1.58;1.48;;;26.80;99.90;;;;;;4991909;28;20188;-41
2022/06/26 09:25:43;;;;;;;2.33;1.40;;;26.90;99.90;;;;;;5004087;28;20214;-42
2022/06/26 09:28:21;;;;;;;1.65;1.55;;;26.90;99.90;;;;;;4991422;28;20202;-42
2022/06/26 09:30:57;;;;;;;1.50;1.40;;;26.90;99.90;;;;;;5010144;28;20179;-40
2022/06/26 09:33:28;;;;;;;1.63;1.52;;;26.90;99.90;;;;;;4979017;28;20210;-41
2022/06/26 09:35:55;;;;;;;2.78;1.42;;;27.00;99.90;;;;;;4956674;28;20192;-41
2022/06/26 09:38:27;;;;;;;1.42;1.33;;;27.10;99.90;;;;;;4989114;28;20235;-42
2022/06/26 09:41:04;;;;;;;1.40;1.30;;;27.10;99.90;;;;;;4974442;28;20176;-42
2022/06/26 09:43:33;;;;;;;2.35;1.60;;;27.10;99.90;;;;;;4995867;28;20179;-42
2022/06/26 09:46:03;;;;;;;1.55;1.45;;;27.40;99.90;;;;;;4991681;28;20171;-42
2022/06/26 09:48:30;;;;;;;1.70;1.60;;;27.80;99.90;;;;;;4967169;28;20258;-42
2022/06/26 09:50:57;;;;;;;1.48;1.38;;;28.10;99.90;;;;;;4999791;28;20207;-40
2022/06/26 09:53:24;;;;;;;1.52;1.42;;;28.10;99.90;;;;;;4981569;28;20259;-42
2022/06/26 09:55:54;;;;;;;1.65;1.50;;;28.40;99.90;;;;;;4991321;28;20188;-42
2022/06/26 09:58:20;;;;;;;2.25;1.50;;;28.40;99.90;;;;;;4999532;28;20257;-42
2022/06/26 10:06:28;;;;;;;1.65;1.30;;;28.30;99.90;;;;;;4975923;28;20227;-41
2022/06/26 10:08:55;;;;;;;1.50;1.40;;;28.20;99.90;;;;;;4975708;28;20223;-42
2022/06/26 10:11:30;;;;;;;1.40;1.30;;;28.20;99.90;;;;;;4990956;28;20214;-41
2022/06/26 10:14:04;;;;;;;1.40;1.30;;;28.50;99.90;;;;;;5011990;28;20221;-42
2022/06/26 10:17:07;;;;;;;1.40;1.30;;;28.60;99.90;;;;;;5012810;28;20182;-42
2022/06/26 10:19:50;;;;;;;1.58;1.48;;;28.60;99.90;;;;;;4973065;28;20211;-42
2022/06/26 10:22:16;;;;;;;1.48;1.38;;;28.70;99.90;;;;;;4960301;28;20179;-42
2022/06/26 10:24:55;;;;;;;1.42;1.33;;;28.90;99.90;;;;;;4974825;28;20207;-42
2022/06/26 10:27:32;;;;;;;1.60;1.50;;;29.00;99.90;;;;;;4991698;28;20180;-42
2022/06/26 10:30:09;;;;;;;1.50;1.40;;;29.00;99.90;;;;;;4975745;28;20252;-42
2022/06/26 10:32:35;;;;;;;1.83;1.30;;;29.20;99.90;;;;;;4984302;28;20187;-40
2022/06/26 10:35:04;;;;;;;1.50;1.40;;;29.40;99.90;;;;;;4973536;28;20183;-42
2022/06/26 10:37:48;;;;;;;1.50;1.40;;;29.30;99.90;;;;;;4985823;28;20234;-42
2022/06/26 10:43:09;;;;;;;1.50;1.40;;;29.40;99.90;;;;;;4991920;28;20540;-42
2022/06/26 10:45:40;;;;;;;1.30;1.20;;;29.20;99.90;;;;;;4993079;28;20185;-42
2022/06/26 10:48:17;;;;;;;1.35;1.25;;;29.20;99.90;;;;;;4994647;28;20239;-42
2022/06/26 10:50:45;;;;;;;1.38;1.27;;;29.10;99.90;;;;;;4976874;28;20179;-42
2022/06/26 10:53:16;;;;;;;1.48;1.30;;;29.00;99.90;;;;;;4988167;28;20176;-42
2022/06/26 10:55:50;;;;;;;1.10;1.10;;;29.00;99.90;;;;;;4983445;28;20237;-42
2022/06/26 10:58:48;;;;;;;1.60;1.50;;;29.10;99.90;;;;;;4994571;28;20285;-42
2022/06/26 11:01:17;;;;;;;1.63;1.52;;;29.30;99.90;;;;;;4972202;28;20189;-42
2022/06/26 11:03:45;;;;;;;1.35;1.25;;;29.50;99.90;;;;;;4955776;28;20193;-43
2022/06/26 11:06:15;;;;;;;1.40;1.30;;;29.70;99.90;;;;;;4969645;28;20180;-42
2022/06/26 11:08:47;;;;;;;1.50;1.40;;;30.00;99.90;;;;;;4991356;28;20204;-41
2022/06/26 11:11:20;;;;;;;2.30;1.30;;;30.00;99.90;;;;;;4978611;28;20194;-42
2022/06/26 11:13:52;;;;;;;2.70;1.67;;;29.90;99.90;;;;;;5011436;28;20217;-41
2022/06/26 11:16:38;;;;;;;2.10;1.50;;;30.00;99.90;;;;;;4988978;28;20169;-42
2022/06/26 11:19:06;;;;;;;1.60;1.50;;;30.10;99.90;;;;;;4972450;28;20223;-42
2022/06/26 11:21:33;;;;;;;1.98;1.45;;;30.20;99.90;;;;;;4981144;28;20191;-42
2022/06/26 11:24:01;;;;;;;1.48;1.38;;;30.20;99.90;;;;;;4986956;28;20195;-43
2022/06/26 11:26:27;;;;;;;1.50;1.40;;;30.30;99.90;;;;;;4993139;28;20175;-42
2022/06/26 11:28:54;;;;;;;1.60;1.50;;;30.50;99.90;;;;;;4978603;28;20212;-42
2022/06/26 11:31:23;;;;;;;1.65;1.48;;;30.50;99.90;;;;;;4978114;28;20206;-40
2022/06/26 11:33:49;;;;;;;1.55;1.30;;;30.60;99.90;;;;;;4977656;28;20234;-42
2022/06/26 11:36:17;;;;;;;2.67;1.48;;;30.80;99.90;;;;;;4963573;28;20245;-43
2022/06/26 11:38:52;;;;;;;1.50;1.35;;;30.80;99.90;;;;;;4974781;28;20204;-42
2022/06/26 11:41:19;;;;;;;1.40;1.30;;;30.80;99.90;;;;;;4974508;28;20238;-43
2022/06/26 11:43:48;;;;;;;1.48;1.38;;;31.00;99.90;;;;;;4974282;28;20275;-42
2022/06/26 11:46:15;;;;;;;1.45;1.35;;;31.00;99.90;;;;;;4991975;28;20229;-42
2022/06/26 11:48:41;;;;;;;3.28;1.50;;;31.10;99.90;;;;;;4990721;28;20204;-42
2022/06/26 11:51:09;;;;;;;1.33;1.25;;;31.20;99.90;;;;;;4989815;28;20184;-43
2022/06/26 11:53:35;;;;;;;1.70;1.40;;;31.20;99.90;;;;;;4973988;28;20191;-43
2022/06/26 11:56:03;;;;;;;1.40;1.30;;;31.20;99.90;;;;;;4974365;28;20176;-42
2022/06/26 11:58:32;;;;;;;1.25;1.20;;;31.20;99.90;;;;;;4991643;28;20231;-43
2022/06/26 12:01:09;;;;;;;1.20;1.10;;;31.00;99.90;;;;;;4974349;28;20180;-42
2022/06/26 12:03:55;;;;;;;1.70;1.23;;;31.00;99.90;;;;;;4973884;28;20183;-42
2022/06/26 12:06:41;;;;;;;2.25;1.23;;;30.80;99.90;;;;;;4991517;28;20195;-42
2022/06/26 12:09:19;;;;;;;1.27;1.23;;;30.70;99.90;;;;;;4990290;28;20314;-42
2022/06/26 12:11:49;;;;;;;1.38;1.27;;;30.80;99.90;;;;;;4991857;28;20188;-42
2022/06/26 12:14:17;;;;;;;1.13;1.13;;;30.90;99.90;;;;;;4973843;28;20215;-42
2022/06/26 12:16:53;;;;;;;1.13;1.10;;;31.10;99.90;;;;;;4990259;28;20184;-43
2022/06/26 12:19:20;;;;;;;1.38;1.27;;;31.30;99.90;;;;;;4990171;28;20214;-43
2022/06/26 12:21:47;;;;;;;1.10;1.10;;;31.40;99.90;;;;;;4990286;28;20180;-42
2022/06/26 12:24:14;;;;;;;1.45;1.35;;;31.30;99.90;;;;;;4974133;28;20183;-43
2022/06/26 12:26:41;;;;;;;1.13;1.10;;;31.50;99.90;;;;;;4974342;28;20172;-43
2022/06/26 12:29:12;;;;;;;1.33;1.23;;;31.60;99.90;;;;;;4973789;28;20240;-42
2022/06/26 12:31:39;;;;;;;1.20;1.20;;;31.80;99.90;;;;;;4991437;28;20190;-42
2022/06/26 12:34:06;;;;;;;1.30;1.20;;;31.80;99.90;;;;;;4973876;28;20242;-43
2022/06/26 12:36:33;;;;;;;1.77;1.15;;;31.90;99.60;;;;;;4973932;28;20220;-42
2022/06/26 12:39:00;;;;;;;1.25;1.20;;;31.50;99.90;;;;;;4973748;28;20212;-43
2022/06/26 12:41:26;;;;;;;1.20;1.10;;;31.60;99.80;;;;;;4989876;28;20255;-42
2022/06/26 12:43:59;;;;;;;1.48;1.38;;;31.80;99.80;;;;;;4973805;28;20250;-42
2022/06/26 12:46:25;;;;;;;1.30;1.15;;;32.00;99.90;;;;;;4990121;28;20176;-42
2022/06/26 12:48:51;;;;;;;2.03;1.30;;;31.90;99.90;;;;;;4973747;28;20211;-43
2022/06/26 12:51:17;;;;;;;1.17;1.17;;;31.90;99.10;;;;;;4973935;28;20179;-42
2022/06/26 12:53:44;;;;;;;1.67;1.20;;;32.10;99.90;;;;;;4974685;28;20180;-41
2022/06/26 12:56:11;;;;;;;1.30;1.23;;;32.30;99.70;;;;;;4990239;28;20191;-43
2022/06/26 12:58:38;;;;;;;2.03;1.40;;;32.50;99.70;;;;;;4974175;28;20207;-42
2022/06/26 13:01:06;;;;;;;1.50;1.40;;;32.60;98.70;;;;;;4973674;28;20188;-42
2022/06/26 13:03:31;;;;;;;1.92;1.20;;;32.90;98.40;;;;;;4973791;28;20184;-43
2022/06/26 13:05:57;;;;;;;1.30;1.30;;;32.80;99.10;;;;;;4973710;28;20188;-43
2022/06/26 13:08:23;;;;;;;2.17;1.20;;;33.00;99.40;;;;;;4974113;28;20231;-43
2022/06/26 13:10:50;;;;;;;2.25;1.20;;;33.00;98.60;;;;;;4990952;28;20180;-43
2022/06/26 13:13:16;;;;;;;1.42;1.33;;;33.10;98.50;;;;;;4973547;28;20180;-41
2022/06/26 13:15:42;;;;;;;1.63;1.20;;;33.00;98.00;;;;;;4974952;28;20187;-43